Time;durP1;ratioP1;P1;durP2;ratioP2;P2;SDS_P1;SDS_P2;PMS_P1;PMS_P2;Temp;Humidity;BMP_temperature;BMP_pressure;BME280_temperature;BME280_humidity;BME280_pressure;Samples;Min_cycle;Max_cycle;Signal;HPM_P1;HPM_P2
2022/04/11 00:00:25;;;;;;;10.90;1.75;;;;;;;1.40;100.00;101793.47;4968181;28;20060;-76
2022/04/11 00:02:51;;;;;;;13.45;1.90;;;;;;;1.46;100.00;101793.22;4969708;28;20126;-76
2022/04/11 00:05:16;;;;;;;5.97;2.00;;;;;;;1.54;100.00;101786.00;4949237;28;20480;-75
2022/04/11 00:07:42;;;;;;;10.05;1.70;;;;;;;1.53;100.00;101791.25;4964077;28;20031;-77
2022/04/11 00:10:08;;;;;;;13.32;2.17;;;;;;;1.41;100.00;101786.56;4951461;28;21037;-76
2022/04/11 00:12:35;;;;;;;14.07;2.30;;;;;;;1.64;100.00;101788.19;4951387;28;20110;-75
2022/04/11 00:15:04;;;;;;;7.35;2.00;;;;;;;1.74;100.00;101777.41;4953805;28;20043;-75
2022/04/11 00:17:30;;;;;;;14.05;2.22;;;;;;;1.83;100.00;101791.72;4952120;28;20182;-75
2022/04/11 00:19:55;;;;;;;12.20;2.38;;;;;;;1.80;100.00;101786.66;4971652;28;20140;-76
2022/04/11 00:22:21;;;;;;;10.25;1.98;;;;;;;1.68;100.00;101784.59;4951324;28;20045;-76
2022/04/11 00:24:49;;;;;;;10.00;1.92;;;;;;;1.51;100.00;101780.94;4965423;28;20507;-74
2022/04/11 00:27:14;;;;;;;15.45;2.15;;;;;;;1.69;100.00;101787.09;4947315;28;20173;-76
2022/04/11 00:29:40;;;;;;;12.63;2.00;;;;;;;1.60;100.00;101782.34;4947900;28;20519;-74
2022/04/11 00:32:06;;;;;;;7.03;1.73;;;;;;;1.56;100.00;101780.75;4967462;28;20090;-76
2022/04/11 00:34:32;;;;;;;7.20;2.00;;;;;;;1.35;100.00;101778.13;4963566;28;20031;-76
2022/04/11 00:36:58;;;;;;;14.27;2.45;;;;;;;1.32;100.00;101780.03;4951855;28;20046;-76
2022/04/11 00:39:23;;;;;;;8.13;2.20;;;;;;;1.39;100.00;101785.78;4940040;28;20043;-76
2022/04/11 00:41:49;;;;;;;8.88;1.90;;;;;;;1.25;100.00;101783.75;4966753;28;20057;-77
2022/04/11 00:44:15;;;;;;;7.50;1.70;;;;;;;1.13;100.00;101778.16;4939521;28;20042;-76
2022/04/11 00:46:40;;;;;;;10.57;2.45;;;;;;;1.01;100.00;101781.22;4982756;28;20049;-75
2022/04/11 00:49:08;;;;;;;8.10;2.10;;;;;;;0.98;100.00;101773.59;4951510;28;20093;-76
2022/04/11 00:51:34;;;;;;;5.45;1.88;;;;;;;0.81;100.00;101783.72;4949671;28;20027;-75
2022/04/11 00:54:00;;;;;;;11.43;2.15;;;;;;;0.73;100.00;101776.25;4951670;28;20053;-76
2022/04/11 00:56:31;;;;;;;11.52;2.20;;;;;;;0.75;100.00;101783.06;4964356;28;20689;-76
2022/04/11 00:59:04;;;;;;;13.68;2.03;;;;;;;0.57;100.00;101770.84;4949794;28;20038;-76
2022/04/11 01:01:29;;;;;;;;;;;;;;;0.60;100.00;101783.59;4963368;28;20086;-75
2022/04/11 01:03:57;;;;;;;10.45;2.00;;;;;;;0.48;100.00;101781.50;4950550;28;19925;-75
2022/04/11 01:06:23;;;;;;;9.13;2.03;;;;;;;0.58;100.00;101780.25;4964750;28;20042;-76
2022/04/11 01:08:48;;;;;;;9.18;2.08;;;;;;;0.63;100.00;101780.09;4963910;28;20039;-76
2022/04/11 01:11:14;;;;;;;17.00;1.85;;;;;;;0.77;100.00;101777.81;4960683;28;20087;-75
2022/04/11 01:13:44;;;;;;;8.25;1.95;;;;;;;0.70;100.00;101778.97;4949612;28;20047;-74
2022/04/11 01:16:12;;;;;;;6.57;1.85;;;;;;;0.60;100.00;101786.19;4949136;28;20042;-75
2022/04/11 01:18:39;;;;;;;9.50;1.98;;;;;;;0.42;100.00;101781.72;4948999;28;20674;-75
2022/04/11 01:21:08;;;;;;;6.95;1.80;;;;;;;0.31;100.00;101785.50;4951384;28;20113;-76
2022/04/11 01:23:34;;;;;;;9.98;1.88;;;;;;;0.18;100.00;101777.38;4964933;28;20085;-75
2022/04/11 01:26:01;;;;;;;7.38;1.83;;;;;;;0.17;100.00;101777.41;4961519;28;20034;-75
2022/04/11 01:28:28;;;;;;;6.57;2.17;;;;;;;0.23;100.00;101790.13;4946175;28;20106;-75
2022/04/11 01:30:55;;;;;;;7.30;2.17;;;;;;;0.15;100.00;101786.94;4933450;28;20034;-76
2022/04/11 01:33:23;;;;;;;8.25;2.42;;;;;;;0.14;100.00;101782.69;4944770;28;20733;-76
2022/04/11 01:35:49;;;;;;;6.05;2.35;;;;;;;0.06;100.00;101792.41;4951365;28;20117;-74
2022/04/11 01:38:15;;;;;;;6.85;2.20;;;;;;;-0.03;100.00;101788.44;4947866;28;20030;-76
2022/04/11 01:40:54;;;;;;;7.55;2.20;;;;;;;-0.11;100.00;101788.72;4952759;28;20046;-74
2022/04/11 01:43:21;;;;;;;14.07;2.50;;;;;;;-0.17;100.00;101788.94;4945584;28;20105;-76
2022/04/11 01:45:48;;;;;;;7.72;2.50;;;;;;;-0.22;100.00;101788.22;4964333;28;20030;-76
2022/04/11 01:48:16;;;;;;;10.43;2.33;;;;;;;-0.24;100.00;101788.28;4946851;28;20113;-75
2022/04/11 01:50:42;;;;;;;6.00;2.40;;;;;;;-0.25;100.00;101790.91;4953449;28;20117;-75
2022/04/11 01:53:11;;;;;;;8.63;2.50;;;;;;;-0.27;100.00;101787.53;4950093;28;20616;-76
2022/04/11 01:55:39;;;;;;;8.55;2.35;;;;;;;-0.32;100.00;101794.56;4955888;28;20532;-77
2022/04/11 01:58:06;;;;;;;7.50;2.67;;;;;;;-0.33;100.00;101793.72;4951925;28;20042;-76
2022/04/11 02:00:32;;;;;;;9.93;2.30;;;;;;;-0.34;100.00;101789.47;4950954;28;20039;-78
2022/04/11 02:03:01;;;;;;;10.60;2.40;;;;;;;-0.38;100.00;101779.31;4950366;28;20038;-77
2022/04/11 02:05:28;;;;;;;9.15;2.50;;;;;;;-0.47;100.00;101795.91;4948665;28;20070;-75
2022/04/11 02:07:54;;;;;;;13.07;2.40;;;;;;;-0.61;100.00;101788.63;4950949;28;20113;-76
2022/04/11 02:10:23;;;;;;;9.27;2.20;;;;;;;-0.69;100.00;101788.03;4948628;28;20050;-77
2022/04/11 02:12:49;;;;;;;10.13;2.10;;;;;;;-0.74;100.00;101795.91;4966206;28;20726;-76
2022/04/11 02:15:16;;;;;;;11.13;2.60;;;;;;;-0.77;100.00;101796.00;4949233;28;20061;-75
2022/04/11 02:17:43;;;;;;;7.35;2.15;;;;;;;-0.83;100.00;101798.75;4951430;28;20034;-76
2022/04/11 02:20:11;;;;;;;12.48;2.50;;;;;;;-0.90;100.00;101795.53;4934579;28;20038;-76
2022/04/11 02:22:51;;;;;;;8.55;2.22;;;;;;;-0.91;100.00;101788.69;4951597;28;20057;-77
2022/04/11 02:25:20;;;;;;;7.70;1.85;;;;;;;-0.95;100.00;101796.56;4962254;28;20030;-77
2022/04/11 02:27:47;;;;;;;5.70;2.40;;;;;;;-0.95;100.00;101799.97;4929828;28;20034;-75
2022/04/11 02:30:14;;;;;;;7.10;2.20;;;;;;;-0.92;100.00;101793.88;4962828;28;20038;-77
2022/04/11 02:32:41;;;;;;;8.25;2.50;;;;;;;-0.91;100.00;101800.72;4929106;28;20393;-75
2022/04/11 02:35:08;;;;;;;11.52;2.45;;;;;;;-0.77;100.00;101800.28;4964551;28;20493;-76
2022/04/11 02:37:34;;;;;;;8.93;2.15;;;;;;;-0.76;100.00;101789.94;4945788;28;20050;-77
2022/04/11 02:40:01;;;;;;;7.47;2.60;;;;;;;-0.70;100.00;101792.31;4961390;28;20046;-77
2022/04/11 02:42:30;;;;;;;12.38;2.70;;;;;;;-0.54;100.00;101790.13;4963728;28;20390;-77
2022/04/11 02:45:04;;;;;;;11.30;2.65;;;;;;;-0.46;100.00;101795.88;4948241;28;20042;-77
2022/04/11 02:47:30;;;;;;;3.85;1.95;;;;;;;-0.55;100.00;101791.00;4961297;28;20145;-77
2022/04/11 02:49:56;;;;;;;8.90;2.45;;;;;;;-0.60;100.00;101795.47;4946938;28;20041;-77
2022/04/11 02:52:43;;;;;;;7.05;2.20;;;;;;;-0.61;100.00;101794.63;4949811;28;20077;-78
2022/04/11 02:55:09;;;;;;;12.02;2.60;;;;;;;-0.70;100.00;101794.06;4965676;28;20062;-78
2022/04/11 02:57:38;;;;;;;10.68;2.30;;;;;;;-0.84;100.00;101786.78;4949735;28;20412;-78
2022/04/11 03:00:07;;;;;;;7.80;2.85;;;;;;;-0.84;100.00;101789.34;4964992;28;20050;-77
2022/04/11 03:02:36;;;;;;;11.43;2.83;;;;;;;-0.93;100.00;101785.31;4947299;28;20125;-77
2022/04/11 03:05:02;;;;;;;10.23;2.50;;;;;;;-0.98;100.00;101782.03;4958885;28;20049;-77
2022/04/11 03:07:29;;;;;;;10.88;2.50;;;;;;;-1.00;100.00;101776.09;4961607;28;20473;-77
2022/04/11 03:09:56;;;;;;;6.13;2.50;;;;;;;-1.04;100.00;101775.34;4954634;28;20046;-77
2022/04/11 03:12:25;;;;;;;5.18;2.55;;;;;;;-1.03;100.00;101782.19;4946381;28;20146;-77
2022/04/11 03:14:51;;;;;;;9.52;2.95;;;;;;;-1.04;100.00;101782.22;4974436;28;20484;-77
2022/04/11 03:17:18;;;;;;;8.02;2.58;;;;;;;-1.06;100.00;101786.59;4965205;28;20031;-77
2022/04/11 03:19:44;;;;;;;10.40;2.88;;;;;;;-1.12;100.00;101782.47;4950402;28;20404;-78
2022/04/11 03:22:11;;;;;;;8.82;2.78;;;;;;;-1.13;100.00;101783.38;4958486;28;20030;-77
2022/04/11 03:24:39;;;;;;;8.55;3.03;;;;;;;-1.18;100.00;101778.34;4964115;28;20035;-78
2022/04/11 03:27:05;;;;;;;7.85;3.10;;;;;;;-1.15;100.00;101790.25;4946958;28;20102;-77
2022/04/11 03:29:34;;;;;;;10.27;3.28;;;;;;;-1.11;100.00;101791.00;4946630;28;20034;-78
2022/04/11 03:32:00;;;;;;;9.20;3.88;;;;;;;-1.13;100.00;101785.06;4947508;28;20045;-78
2022/04/11 03:34:28;;;;;;;6.80;3.58;;;;;;;-1.13;100.00;101785.06;4959121;28;20098;-76
2022/04/11 03:36:53;;;;;;;9.80;4.22;;;;;;;-1.13;100.00;101785.94;4934238;28;20034;-78
2022/04/11 03:39:19;;;;;;;9.60;4.30;;;;;;;-1.17;100.00;101784.31;4982990;28;20030;-76
2022/04/11 03:41:46;;;;;;;9.07;3.85;;;;;;;-1.21;100.00;101785.31;4959862;28;20416;-74
2022/04/11 03:44:21;;;;;;;10.55;3.80;;;;;;;-1.29;100.00;101790.69;4962830;28;20035;-76
2022/04/11 03:46:50;;;;;;;9.05;3.72;;;;;;;-1.28;100.00;101784.66;4948723;28;20116;-75
2022/04/11 03:49:21;;;;;;;12.50;4.10;;;;;;;-1.28;100.00;101786.38;4952982;28;20082;-75
2022/04/11 03:51:47;;;;;;;10.40;4.32;;;;;;;-1.37;100.00;101783.19;4950489;28;20030;-75
2022/04/11 03:54:13;;;;;;;11.73;4.53;;;;;;;-1.35;100.00;101797.75;4966155;28;20038;-76
2022/04/11 03:56:38;;;;;;;8.52;3.92;;;;;;;-1.38;100.00;101789.19;4964951;28;20097;-75
2022/04/11 03:59:06;;;;;;;10.27;4.13;;;;;;;-1.41;100.00;101801.34;4948085;28;20112;-75
2022/04/11 04:01:32;;;;;;;12.65;4.40;;;;;;;-1.43;100.00;101791.09;4947095;28;20038;-74
2022/04/11 04:04:00;;;;;;;6.47;3.70;;;;;;;-1.44;100.00;101797.09;4944370;28;20044;-76
2022/04/11 04:06:26;;;;;;;11.18;3.65;;;;;;;-1.39;100.00;101804.72;4962797;28;20142;-75
2022/04/11 04:08:52;;;;;;;7.90;3.35;;;;;;;-1.33;100.00;101808.84;4964124;28;20039;-78
2022/04/11 04:11:25;;;;;;;14.57;3.80;;;;;;;-1.32;100.00;101802.78;4963762;28;20464;-76
2022/04/11 04:14:04;;;;;;;10.65;3.10;;;;;;;-1.22;100.00;101802.50;4948346;28;20504;-78
2022/04/11 04:16:33;;;;;;;6.28;3.10;;;;;;;-1.21;100.00;101806.72;4965248;28;20378;-78
2022/04/11 04:19:04;;;;;;;6.43;3.05;;;;;;;-1.21;100.00;101806.72;4940774;28;20520;-77
2022/04/11 04:21:29;;;;;;;8.70;3.50;;;;;;;-1.23;100.00;101797.38;4957543;28;20043;-77
2022/04/11 04:23:56;;;;;;;16.35;3.92;;;;;;;-1.17;100.00;101799.75;4959399;28;20031;-76
2022/04/11 04:26:24;;;;;;;7.18;3.20;;;;;;;-1.21;100.00;101809.31;4949869;28;20656;-77
2022/04/11 04:28:51;;;;;;;9.82;3.15;;;;;;;-1.30;100.00;101801.88;4966487;28;20026;-77
2022/04/11 04:31:19;;;;;;;10.43;2.92;;;;;;;-1.20;100.00;101813.59;4935679;28;20456;-76
2022/04/11 04:33:45;;;;;;;12.27;3.95;;;;;;;-1.24;100.00;101801.69;4968647;28;20069;-79
2022/04/11 04:36:12;;;;;;;14.15;4.53;;;;;;;-1.19;100.00;101801.53;4961715;28;20551;-76
2022/04/11 04:38:38;;;;;;;11.52;4.35;;;;;;;-1.18;100.00;101804.09;4953803;28;20042;-77
2022/04/11 04:41:04;;;;;;;12.32;3.90;;;;;;;-1.19;100.00;101802.41;4949507;28;20077;-75
2022/04/11 04:43:30;;;;;;;13.52;4.30;;;;;;;-1.13;100.00;101811.69;4950298;28;20489;-80
2022/04/11 04:45:57;;;;;;;9.18;4.10;;;;;;;-1.21;100.00;101811.88;4951810;28;20035;-75
2022/04/11 04:48:40;;;;;;;12.52;4.38;;;;;;;-1.22;100.00;101806.81;4951465;28;20046;-74
2022/04/11 04:51:08;;;;;;;9.68;4.40;;;;;;;-1.26;100.00;101808.63;4946122;28;20125;-74
2022/04/11 04:53:37;;;;;;;9.02;4.88;;;;;;;-1.25;100.00;101817.19;4958712;28;20412;-75
2022/04/11 04:56:03;;;;;;;13.73;4.35;;;;;;;-1.29;100.00;101798.41;4964688;28;20551;-76
2022/04/11 04:58:32;;;;;;;8.45;3.92;;;;;;;-1.21;100.00;101804.16;4967719;28;20037;-77
2022/04/11 05:00:59;;;;;;;9.18;4.72;;;;;;;-1.16;100.00;101792.91;4965384;28;20041;-75
2022/04/11 05:03:26;;;;;;;13.48;4.85;;;;;;;-1.01;100.00;101807.91;4947646;28;20475;-76
2022/04/11 05:05:52;;;;;;;10.75;4.88;;;;;;;-0.94;100.00;101799.09;4951044;28;20463;-76
2022/04/11 05:08:18;;;;;;;11.93;4.35;;;;;;;-0.89;100.00;101797.22;4949642;28;20031;-75
2022/04/11 05:10:44;;;;;;;16.15;4.60;;;;;;;-0.84;100.00;101797.09;4950940;28;20085;-75
2022/04/11 05:13:11;;;;;;;10.82;4.80;;;;;;;-0.78;100.00;101794.31;4951060;28;20062;-75
2022/04/11 05:15:38;;;;;;;10.52;4.65;;;;;;;-0.77;100.00;101800.28;4951345;28;20066;-75
2022/04/11 05:18:11;;;;;;;11.13;4.80;;;;;;;-0.70;100.00;101807.78;4950148;28;20812;-74
2022/04/11 05:20:40;;;;;;;12.40;4.45;;;;;;;-0.64;100.00;101801.59;4962648;28;20042;-77
2022/04/11 05:23:05;;;;;;;8.93;4.03;;;;;;;-0.56;100.00;101806.53;4963451;28;20042;-74
2022/04/11 05:25:35;;;;;;;10.75;4.10;;;;;;;-0.50;100.00;101811.50;4961378;28;20631;-76
2022/04/11 05:28:02;;;;;;;12.10;4.97;;;;;;;-0.45;100.00;101810.44;4952216;28;20472;-76
2022/04/11 05:30:33;;;;;;;12.15;4.68;;;;;;;-0.36;100.00;101808.44;4946801;28;20035;-75
2022/04/11 05:33:01;;;;;;;10.57;4.60;;;;;;;-0.25;100.00;101811.53;4934699;29;20211;-76
2022/04/11 05:35:27;;;;;;;13.52;4.78;;;;;;;-0.06;100.00;101815.19;4948748;28;20515;-76
2022/04/11 05:37:52;;;;;;;7.90;4.20;;;;;;;0.03;100.00;101815.75;4964453;28;20031;-75
2022/04/11 05:40:18;;;;;;;14.80;4.28;;;;;;;0.05;100.00;101816.56;4950354;28;20034;-76
2022/04/11 05:42:45;;;;;;;11.45;4.85;;;;;;;0.19;100.00;101816.94;4952258;28;20134;-77
2022/04/11 05:45:12;;;;;;;11.98;4.50;;;;;;;0.32;100.00;101814.75;4933944;28;20022;-75
2022/04/11 05:47:38;;;;;;;12.27;4.30;;;;;;;0.46;100.00;101815.09;4966002;28;20463;-75
2022/04/11 05:50:04;;;;;;;12.07;4.50;;;;;;;0.57;100.00;101814.72;4961620;28;20038;-76
2022/04/11 05:52:30;;;;;;;12.18;4.53;;;;;;;0.76;100.00;101822.63;4941677;28;20057;-75
2022/04/11 05:54:56;;;;;;;12.65;4.88;;;;;;;0.92;100.00;101821.19;4947219;28;20038;-76
2022/04/11 05:57:22;;;;;;;13.48;4.93;;;;;;;1.10;100.00;101824.78;4950673;28;20043;-75
2022/04/11 05:59:49;;;;;;;13.45;4.35;;;;;;;1.26;100.00;101827.63;4978993;28;20431;-76
2022/04/11 06:02:14;;;;;;;8.98;4.93;;;;;;;1.51;100.00;101834.41;4962056;28;20054;-76
2022/04/11 06:04:41;;;;;;;13.95;6.10;;;;;;;1.79;100.00;101826.38;4950335;28;20037;-76
2022/04/11 06:07:08;;;;;;;14.30;5.80;;;;;;;1.98;100.00;101817.84;4961266;28;20058;-75
2022/04/11 06:09:34;;;;;;;12.43;4.55;;;;;;;2.28;100.00;101828.63;4976938;28;20031;-76
2022/04/11 06:12:01;;;;;;;10.48;3.88;;;;;;;2.49;100.00;101834.63;4934940;28;20507;-76
2022/04/11 06:14:28;;;;;;;10.35;3.80;;;;;;;2.70;100.00;101820.72;4960787;28;20039;-75
2022/04/11 06:16:55;;;;;;;8.02;3.35;;;;;;;2.88;100.00;101834.59;4944069;28;20477;-75
2022/04/11 06:19:21;;;;;;;9.25;3.50;;;;;;;3.04;100.00;101828.72;4982058;28;20543;-75
2022/04/11 06:21:47;;;;;;;10.68;3.30;;;;;;;3.09;100.00;101837.97;4950556;28;20130;-76
2022/04/11 06:24:14;;;;;;;10.40;3.50;;;;;;;3.26;100.00;101837.16;4962046;28;20704;-76
2022/04/11 06:26:43;;;;;;;11.07;3.20;;;;;;;3.47;100.00;101840.50;4950263;28;20077;-75
2022/04/11 06:29:10;;;;;;;9.98;3.28;;;;;;;3.66;100.00;101843.03;4949408;28;20039;-77
2022/04/11 06:31:37;;;;;;;7.00;2.60;;;;;;;3.95;100.00;101845.94;4964384;28;20063;-76
2022/04/11 06:34:13;;;;;;;9.90;2.50;;;;;;;4.12;99.32;101847.69;4951498;28;20038;-75
2022/04/11 06:36:39;;;;;;;7.75;2.38;;;;;;;4.26;96.94;101842.66;4976808;28;20112;-75
2022/04/11 06:39:05;;;;;;;10.18;2.50;;;;;;;4.42;96.06;101849.63;4949257;28;20421;-75
2022/04/11 06:41:35;;;;;;;11.63;2.83;;;;;;;4.58;96.82;101852.31;4949238;28;20035;-77
2022/04/11 06:44:01;;;;;;;12.23;2.65;;;;;;;4.69;93.71;101849.97;4945467;28;20061;-76
2022/04/11 06:46:35;;;;;;;10.07;2.75;;;;;;;4.67;95.45;101852.66;4944322;28;20035;-76
2022/04/11 06:49:01;;;;;;;10.23;2.72;;;;;;;4.73;95.68;101859.28;4947077;28;20473;-76
2022/04/11 06:51:27;;;;;;;9.18;2.35;;;;;;;4.91;97.07;101856.63;4944455;28;20493;-74
2022/04/11 06:53:53;;;;;;;6.25;1.88;;;;;;;5.12;93.09;101855.44;4957062;28;20112;-76
2022/04/11 06:56:18;;;;;;;8.13;2.53;;;;;;;5.22;92.98;101861.00;4937338;28;20049;-74
2022/04/11 06:58:44;;;;;;;8.85;2.72;;;;;;;5.37;92.81;101867.09;4947742;28;20107;-75
2022/04/11 07:01:09;;;;;;;12.88;3.35;;;;;;;5.59;92.88;101869.34;4948028;28;20395;-75
2022/04/11 07:03:35;;;;;;;12.70;2.47;;;;;;;5.64;93.54;101857.75;4946764;28;20118;-77
2022/04/11 07:06:00;;;;;;;10.50;2.63;;;;;;;5.68;92.82;101868.81;4971329;28;20035;-76
2022/04/11 07:08:26;;;;;;;8.45;2.80;;;;;;;5.66;95.53;101865.47;4943056;28;20093;-76
2022/04/11 07:10:52;;;;;;;8.52;3.15;;;;;;;5.80;95.42;101869.88;4945378;28;20493;-75
2022/04/11 07:13:17;;;;;;;9.98;2.63;;;;;;;5.80;93.78;101869.88;4957926;28;20045;-76
2022/04/11 07:15:43;;;;;;;9.52;2.88;;;;;;;5.79;92.39;101870.81;4963741;28;20031;-75
2022/04/11 07:18:08;;;;;;;9.05;2.65;;;;;;;6.03;94.84;101863.41;4947944;28;20616;-76
2022/04/11 07:20:34;;;;;;;8.43;2.58;;;;;;;6.06;90.73;101876.22;4950031;28;20128;-76
2022/04/11 07:22:59;;;;;;;11.20;2.83;;;;;;;5.95;90.93;101874.25;4960260;28;20488;-75
2022/04/11 07:25:25;;;;;;;12.77;2.70;;;;;;;6.06;92.75;101876.22;4959270;28;20465;-75
2022/04/11 07:27:51;;;;;;;6.05;2.70;;;;;;;6.10;88.69;101872.50;4948823;28;20038;-78
2022/04/11 07:30:17;;;;;;;10.52;2.80;;;;;;;6.00;89.99;101874.81;4978541;28;20035;-77
2022/04/11 07:32:43;;;;;;;9.05;3.50;;;;;;;5.90;90.23;101880.63;4945509;28;20041;-79
2022/04/11 07:35:08;;;;;;;14.48;3.78;;;;;;;5.91;93.56;101877.09;4947917;28;20392;-76
2022/04/11 07:37:34;;;;;;;12.07;3.50;;;;;;;6.10;90.12;101877.72;4959646;28;20042;-76
2022/04/11 07:40:03;;;;;;;13.35;3.15;;;;;;;6.24;91.67;101874.31;4950475;28;20042;-76
2022/04/11 07:42:29;;;;;;;10.25;2.95;;;;;;;6.29;91.12;101874.03;4944503;28;20027;-77
2022/04/11 07:44:55;;;;;;;14.88;3.00;;;;;;;6.21;88.37;101867.50;4959121;28;20054;-76
2022/04/11 07:47:23;;;;;;;12.00;3.20;;;;;;;6.30;89.85;101873.94;4947010;28;20026;-76
2022/04/11 07:49:49;;;;;;;12.48;3.00;;;;;;;6.57;89.47;101874.09;4960614;28;20049;-77
2022/04/11 07:52:14;;;;;;;8.65;2.88;;;;;;;6.75;92.93;101872.09;4948408;28;20038;-77
2022/04/11 07:54:43;;;;;;;8.13;3.05;;;;;;;6.90;88.15;101870.34;4961108;28;20452;-79
2022/04/11 07:57:09;;;;;;;7.70;2.80;;;;;;;6.90;89.05;101874.72;4953735;28;20038;-77
2022/04/11 07:59:35;;;;;;;11.95;2.95;;;;;;;6.91;88.15;101881.59;4976930;28;20042;-76
2022/04/11 08:02:01;;;;;;;14.85;2.90;;;;;;;6.90;89.52;101877.31;4956278;28;20039;-75
2022/04/11 08:04:27;;;;;;;10.63;3.17;;;;;;;7.14;89.38;101875.78;4952742;28;20030;-77
2022/04/11 08:06:52;;;;;;;10.98;2.90;;;;;;;7.37;86.92;101871.72;4951870;28;20054;-77
2022/04/11 08:09:19;;;;;;;10.50;3.55;;;;;;;7.30;86.28;101870.44;4981656;28;20033;-76
2022/04/11 08:11:44;;;;;;;10.90;3.05;;;;;;;7.43;84.70;101874.88;4949404;28;20093;-76
2022/04/11 08:14:10;;;;;;;11.32;2.88;;;;;;;7.50;86.33;101878.78;4975423;28;20026;-76
2022/04/11 08:16:36;;;;;;;10.90;2.85;;;;;;;7.46;86.78;101875.53;4957203;28;20038;-75
2022/04/11 08:19:01;;;;;;;5.18;1.90;;;;;;;7.51;83.20;101883.06;4965361;28;20082;-75
2022/04/11 08:21:27;;;;;;;12.13;3.50;;;;;;;7.59;82.96;101880.78;4946765;28;20055;-76
2022/04/11 08:23:52;;;;;;;10.85;2.92;;;;;;;7.66;82.36;101876.00;4969092;28;20034;-74
2022/04/11 08:26:18;;;;;;;9.63;2.60;;;;;;;7.57;83.16;101873.06;4965819;28;20084;-76
2022/04/11 08:28:44;;;;;;;14.65;2.78;;;;;;;7.45;82.49;101876.44;4960200;28;20038;-76
2022/04/11 08:31:09;;;;;;;13.35;3.20;;;;;;;7.51;81.50;101870.00;4951432;28;20397;-76
2022/04/11 08:33:35;;;;;;;9.57;2.85;;;;;;;7.43;84.20;101872.28;4968646;28;20037;-76
2022/04/11 08:36:00;;;;;;;10.50;2.97;;;;;;;7.63;85.62;101878.81;4961135;28;20062;-78
2022/04/11 08:38:26;;;;;;;10.10;2.75;;;;;;;7.74;85.58;101873.72;4963460;28;20113;-76
2022/04/11 08:40:54;;;;;;;11.70;2.90;;;;;;;8.01;83.76;101886.75;4946360;28;20038;-76
2022/04/11 08:43:25;;;;;;;8.88;2.70;;;;;;;8.00;80.25;101885.06;4944973;28;20566;-75
2022/04/11 08:45:55;;;;;;;13.88;3.17;;;;;;;8.14;80.52;101877.16;4964732;28;20041;-76
2022/04/11 08:48:22;;;;;;;9.30;2.70;;;;;;;8.23;81.11;101872.25;4946043;28;20032;-75
2022/04/11 08:50:48;;;;;;;10.80;2.70;;;;;;;8.27;77.18;101874.56;4950735;28;20027;-75
2022/04/11 08:53:18;;;;;;;8.77;2.30;;;;;;;8.36;79.38;101868.72;4946804;28;20109;-75
2022/04/11 08:55:46;;;;;;;8.23;3.22;;;;;;;8.42;78.77;101875.34;4966719;28;20046;-76
2022/04/11 08:58:12;;;;;;;8.90;2.88;;;;;;;8.44;77.72;101876.06;4947359;28;20121;-74
2022/04/11 09:00:38;;;;;;;12.40;3.00;;;;;;;8.49;76.76;101875.72;4948029;28;20133;-76
2022/04/11 09:03:05;;;;;;;6.45;1.80;;;;;;;8.72;73.59;101871.53;4951544;28;20439;-76
2022/04/11 09:05:31;;;;;;;5.40;1.90;;;;;;;8.65;74.56;101875.53;4954505;28;20039;-76
2022/04/11 09:07:58;;;;;;;8.00;2.40;;;;;;;8.63;76.70;101878.25;4968456;28;20035;-75
2022/04/11 09:10:32;;;;;;;6.95;2.17;;;;;;;8.79;74.87;101880.63;4948355;28;20366;-76
2022/04/11 09:13:00;;;;;;;8.00;1.80;;;;;;;8.82;73.90;101885.66;4964769;28;20034;-76
2022/04/11 09:15:27;;;;;;;10.00;1.67;;;;;;;8.93;73.29;101885.72;4950583;28;20054;-77
2022/04/11 09:17:55;;;;;;;5.28;1.70;;;;;;;8.82;67.95;101877.81;4951474;28;20172;-75
2022/04/11 09:20:30;;;;;;;7.93;2.15;;;;;;;8.89;70.50;101881.66;4949715;28;20035;-77
2022/04/11 09:22:56;;;;;;;6.03;1.60;;;;;;;8.86;64.54;101879.25;4947167;28;20031;-75
2022/04/11 09:25:24;;;;;;;5.22;1.25;;;;;;;8.87;67.02;101878.31;4961728;28;20050;-76
2022/04/11 09:28:10;;;;;;;8.60;1.80;;;;;;;9.06;70.04;101884.84;4965768;28;20018;-75
2022/04/11 09:30:39;;;;;;;4.88;1.77;;;;;;;9.10;71.60;101884.53;4947991;28;20073;-76
2022/04/11 09:33:09;;;;;;;7.35;1.80;;;;;;;8.93;65.47;101874.44;4946543;28;20054;-75
2022/04/11 09:35:36;;;;;;;5.15;1.30;;;;;;;9.05;64.07;101876.19;4964985;28;20089;-76
2022/04/11 09:38:11;;;;;;;8.10;1.30;;;;;;;9.32;64.32;101877.75;4966088;28;20038;-76
2022/04/11 09:40:58;;;;;;;9.93;1.70;;;;;;;9.27;62.90;101869.44;4963613;28;20043;-76
2022/04/11 09:43:31;;;;;;;4.97;1.40;;;;;;;9.27;63.93;101865.00;4947038;28;20061;-78
2022/04/11 09:46:02;;;;;;;4.40;1.33;;;;;;;9.22;63.07;101869.75;4949466;28;20050;-77
2022/04/11 09:48:35;;;;;;;3.60;1.00;;;;;;;9.35;61.29;101878.38;4963229;28;20126;-75
2022/04/11 09:51:01;;;;;;;4.65;1.40;;;;;;;9.39;60.17;101872.94;4950576;28;20035;-75
2022/04/11 09:53:32;;;;;;;4.80;1.40;;;;;;;9.43;61.13;101869.97;4949862;28;20045;-78
2022/04/11 09:56:02;;;;;;;4.03;1.17;;;;;;;9.62;65.27;101872.06;4962333;28;20827;-76
2022/04/11 09:58:28;;;;;;;5.75;1.20;;;;;;;9.63;62.18;101865.91;4948850;28;20035;-76
2022/04/11 10:00:54;;;;;;;4.53;1.10;;;;;;;9.68;59.22;101871.66;4964306;28;20031;-76
2022/04/11 10:03:22;;;;;;;5.43;0.95;;;;;;;10.06;58.06;101869.75;4964870;28;20037;-76
2022/04/11 10:05:49;;;;;;;8.15;1.00;;;;;;;10.19;58.28;101870.50;4953437;28;20045;-76
2022/04/11 10:08:15;;;;;;;5.55;0.90;;;;;;;9.92;57.87;101868.97;4948294;28;20026;-76
2022/04/11 10:10:41;;;;;;;6.03;1.40;;;;;;;9.92;59.86;101870.75;4965910;28;20405;-76
2022/04/11 10:13:13;;;;;;;10.63;2.83;;;;;;;9.89;61.50;101865.78;4963230;28;20027;-75
2022/04/11 10:15:41;;;;;;;4.70;1.07;;;;;;;10.08;59.35;101865.22;4949050;28;20637;-76
2022/04/11 10:18:09;;;;;;;4.72;0.88;;;;;;;10.21;54.22;101860.72;4947461;28;20035;-77
2022/04/11 10:20:38;;;;;;;4.13;1.00;;;;;;;10.39;53.57;101863.72;4962714;28;20046;-76
2022/04/11 10:23:13;;;;;;;6.03;1.02;;;;;;;10.33;55.01;101853.72;4948094;28;20090;-75
2022/04/11 10:25:49;;;;;;;5.00;0.90;;;;;;;10.42;50.60;101853.00;4958609;28;20152;-76
2022/04/11 10:28:25;;;;;;;5.78;0.93;;;;;;;10.17;51.61;101850.56;4961828;28;20126;-76
2022/04/11 10:31:07;;;;;;;4.60;1.23;;;;;;;10.14;49.94;101852.47;4962665;28;20035;-76
2022/04/11 10:33:52;;;;;;;6.77;1.13;;;;;;;10.31;53.78;101853.00;4946642;28;20138;-76
2022/04/11 10:36:38;;;;;;;2.70;0.88;;;;;;;10.39;51.22;101858.50;4951427;28;20082;-78
2022/04/11 10:39:19;;;;;;;4.18;1.00;;;;;;;10.54;50.30;101860.91;4966181;28;20039;-78
2022/04/11 10:41:54;;;;;;;2.92;1.15;;;;;;;10.59;51.62;101846.47;4954055;28;20718;-78
2022/04/11 10:44:40;;;;;;;5.03;1.45;;;;;;;10.75;51.87;101850.50;4967045;28;20031;-77
2022/04/11 10:47:12;;;;;;;6.20;1.20;;;;;;;10.89;51.04;101848.47;4962939;28;20057;-76
2022/04/11 10:49:50;;;;;;;4.55;1.20;;;;;;;10.80;50.89;101851.81;4964742;28;20448;-76
2022/04/11 10:52:35;;;;;;;4.55;1.00;;;;;;;10.93;52.13;101848.22;4947244;28;20046;-77
2022/04/11 10:55:09;;;;;;;4.75;0.95;;;;;;;11.08;49.87;101852.25;4952552;28;20033;-75
2022/04/11 10:57:36;;;;;;;2.78;1.10;;;;;;;11.24;48.11;101857.09;4945402;28;20063;-75
2022/04/11 11:00:04;;;;;;;3.58;0.90;;;;;;;11.42;48.98;101857.41;4963359;28;20135;-77
2022/04/11 11:02:52;;;;;;;3.58;1.08;;;;;;;11.20;48.25;101853.88;4981956;28;20116;-77
2022/04/11 11:05:40;;;;;;;5.18;0.93;;;;;;;11.24;48.90;101852.69;4934416;28;20054;-77
2022/04/11 11:08:16;;;;;;;5.53;1.20;;;;;;;11.52;48.40;101855.69;4961116;28;20122;-78
2022/04/11 11:10:52;;;;;;;4.38;1.00;;;;;;;11.33;46.43;101843.22;4934901;28;20092;-76
2022/04/11 11:13:27;;;;;;;4.80;0.98;;;;;;;11.42;48.62;101845.09;4949063;28;20112;-78
2022/04/11 11:16:08;;;;;;;6.38;1.58;;;;;;;11.63;47.63;101849.56;4945797;28;20120;-80
2022/04/11 11:18:46;;;;;;;5.90;1.35;;;;;;;11.62;47.74;101845.25;4932208;28;20035;-76
2022/04/11 11:21:15;;;;;;;5.50;1.08;;;;;;;11.49;49.71;101832.31;4951561;28;20161;-76
2022/04/11 11:23:42;;;;;;;3.65;1.30;;;;;;;11.44;48.35;101839.75;4966934;28;20051;-78
2022/04/11 11:26:09;;;;;;;2.45;0.80;;;;;;;11.40;49.08;101830.44;4947502;28;20081;-76